No se requiere un especial cuidado respecto a la situación meteorológica.   -   No hay avisos

Informes METAR

 

LEZL - Sevilla, Spain
Distancia de la estación: ENE 8km
Actualización: 26/01/2015 21:00
Despejado
Despejado
 Viento de variable
Viento: variable 2 km/h
Temperatura: 9°C
Rocío: 5°C
Humedad: 76%
Barómetro: 1027 hPa
Resumen: Despejado
Visibilidad: mayor de 10 km
2015/01/26 20:00 LEZL 262000Z VRB01KT CAVOK 09/05 Q1027 NOSIG
LEMO - Morón, Spain
Distancia de la estación: SE 43km
Actualización: 26/01/2015 21:00
Despejado
Despejado
 Viento de calm
Viento: Calma
Temperatura: 7°C
Rocío: 2°C
Humedad: 71%
Barómetro: 1028 hPa
Resumen: Despejado
Visibilidad: mayor de 10 km
2015/01/26 20:00 LEMO 262000Z 00000KT CAVOK 07/02 Q1028 NOSIG
LEJR - Jeréz, Spain
Distancia de la estación: S 71km
Actualización: 26/01/2015 21:00
Despejado
Despejado
 Viento de calm
Viento: Calma
Temperatura: 10°C
Rocío: 5°C
Humedad: 71%
Barómetro: 1027 hPa
Resumen: Despejado
Visibilidad: mayor de 10 km
2015/01/26 20:00 LEJR 262000Z 00000KT CAVOK 10/05 Q1027
 
LERT - Rota, Spain
Distancia de la estación: SSO 89km
Actualización: 26/01/2015 21:00
Despejado
Despejado
 Viento de NNO
Viento: NNO 13 km/h
Temperatura: 11°C
Rocío: 7°C
Humedad: 77%
Barómetro: 1027 hPa
Resumen: Despejado
Visibilidad: mayor de 10 km
2015/01/26 20:00 LERT 262000Z 33007KT CAVOK 11/07 Q1027 NOSIG
LEMG - Málaga, Spain
Distancia de la estación: ESE 157km
Actualización: 26/01/2015 21:00
Despejado
Despejado
 Viento de calm
Viento: Calma
Temperatura: 10°C
Rocío: 7°C
Humedad: 82%
Barómetro: 1027 hPa
Resumen: Despejado
Visibilidad: mayor de 10 km
2015/01/26 20:00 LEMG 262000Z 00000KT CAVOK 10/07 Q1027 NOSIG
LEBA - Córdoba, Spain
Distancia de la estación: ENE 115km
Actualización: 26/01/2015 20:00
NOT Current
Despejado
Despejado
 Viento de calm
Viento: Calma
Temperatura: 7°C
Rocío: 3°C
Humedad: 76%
Barómetro: 1027 hPa
Resumen: Despejado
Visibilidad: mayor de 10 km
2015/01/26 19:00 LEBA 261900Z 00000KT CAVOK 07/03 Q1027
 
LEGR - Granada, Spain
Distancia de la estación: E 198km
Actualización: 26/01/2015 21:00
Despejado
Despejado
 Viento de variable
Viento: variable 7 km/h
Temperatura: 8°C
Sensación térmica: 7°C
Rocío: -2°C
Humedad: 50%
Barómetro: 1027 hPa
Resumen: Despejado
Visibilidad: mayor de 10 km
2015/01/26 20:00 LEGR 262000Z VRB04KT CAVOK 08/M02 Q1027
LEAM - Almería, Spain
Distancia de la estación: E 326km
Actualización: 26/01/2015 21:00
Poco nuboso
Poco nuboso
 Viento de N
Viento: N 7 km/h
Temperatura: 10°C
Sensación térmica: 9°C
Rocío: 5°C
Humedad: 71%
Barómetro: 1027 hPa
Nubes: Poco nuboso
Visibilidad: 10 km
Detalles de las nubes: Poco nuboso 457 m
2015/01/26 20:00 LEAM 262000Z 36004KT 9999 FEW015 10/05 Q1027
LEMD - Madrid/Barajas, Spain
Distancia de la estación: NNE 402km
Actualización: 26/01/2015 21:00
Despejado
Despejado
 Viento de N
Viento: N 11 km/h
Temperatura: 9°C
Sensación térmica: 7°C
Rocío: -8°C
Humedad: 29%
Barómetro: 1028 hPa
Resumen: Despejado
Visibilidad: mayor de 10 km
2015/01/26 20:00 LEMD 262000Z 36006KT CAVOK 09/M08 Q1028 NOSIG
 
LEVD - Valladolid, Spain
Distancia de la estación: N 492km
Actualización: 26/01/2015 21:00
Despejado
Despejado
 Viento de NE
Viento: NE 7 km/h
Temperatura: 2°C
Sensación térmica: 0°C
Rocío: 0°C
Humedad: 87%
Barómetro: 1031 hPa
Resumen: Despejado
Visibilidad: mayor de 10 km
2015/01/26 20:00 LEVD 262000Z 05004KT CAVOK 02/00 Q1031
LEBL - Barcelona, Spain
Distancia de la estación: NE 816km
Actualización: 26/01/2015 21:00
Poco nuboso
Poco nuboso
 Viento de NO
Viento: NO 9 km/h
Temperatura: 9°C
Sensación térmica: 7°C
Rocío: 1°C
Humedad: 58%
Barómetro: 1027 hPa
Nubes: Poco nuboso
Visibilidad: 10 km
Detalles de las nubes: Poco nuboso 1219 m
2015/01/26 20:00 LEBL 262000Z 31005KT 9999 FEW040 09/01 Q1027 NOSIG
LEVC - Valencia, Spain
Distancia de la estación: ENE 535km
Actualización: 26/01/2015 21:00
Despejado
Despejado
 Viento de variable
Viento: variable 4 km/h
Temperatura: 7°C
Rocío: 2°C
Humedad: 71%
Barómetro: 1027 hPa
Resumen: Despejado
Visibilidad: mayor de 10 km
2015/01/26 20:00 LEVC 262000Z VRB02KT CAVOK 07/02 Q1027 NOSIG